Airport ICAO


09:49 UTC

2°C


An affordable passengers' Moving Map for your aircraft. Made for the iPad and the iPhone
More information here

EGLC City


London UNITED KINGDOM   VFR


METAR EGLC 180920Z AUTO 09005KT 9999 NCD 02/M03 Q1018 0h29min

TAF EGLC 180800Z 1809/1818 VRB03KT 9999 FEW035 BECMG 1810/1813 16010KT 1h49min





NOTAMS

OPEN